Time;durP1;ratioP1;P1;durP2;ratioP2;P2;SDS_P1;SDS_P2;PMS_P1;PMS_P2;Temp;Humidity;BMP_temperature;BMP_pressure;BME280_temperature;BME280_humidity;BME280_pressure;Samples;Min_cycle;Max_cycle;Signal;HPM_P1;HPM_P2
2022/05/27 00:01:23;;;;;;;19.10;2.72;;;13.80;99.90;;;;;;5072069;28;20490;-47
2022/05/27 00:03:50;;;;;;;1.92;0.75;;;13.80;99.90;;;;;;5071966;28;20051;-46
2022/05/27 00:06:16;;;;;;;3.55;1.00;;;13.70;99.90;;;;;;5071562;28;20044;-47
2022/05/27 00:08:41;;;;;;;4.78;0.90;;;13.80;99.90;;;;;;5071968;28;20329;-47
2022/05/27 00:11:08;;;;;;;4.72;1.20;;;13.70;99.90;;;;;;5071711;28;20048;-47
2022/05/27 00:13:34;;;;;;;5.95;1.17;;;13.70;99.90;;;;;;5070600;28;20040;-47
2022/05/27 00:15:59;;;;;;;2.15;1.38;;;13.70;99.90;;;;;;5071169;28;20037;-47
2022/05/27 00:18:25;;;;;;;5.40;1.13;;;13.70;99.90;;;;;;5072131;28;20041;-48
2022/05/27 00:20:51;;;;;;;2.70;1.13;;;13.70;99.90;;;;;;5071531;28;20080;-47
2022/05/27 00:23:17;;;;;;;7.25;1.20;;;13.70;99.90;;;;;;5070950;28;20044;-47
2022/05/27 00:25:43;;;;;;;3.28;0.88;;;13.70;99.90;;;;;;5070996;28;20049;-47
2022/05/27 00:28:09;;;;;;;1.83;0.80;;;13.70;99.90;;;;;;5071992;28;20062;-47
2022/05/27 00:30:36;;;;;;;3.13;1.10;;;13.70;99.90;;;;;;5071719;28;20056;-46
2022/05/27 00:33:02;;;;;;;2.60;0.77;;;13.60;99.90;;;;;;5071144;28;20467;-48
2022/05/27 00:35:28;;;;;;;3.90;1.00;;;13.60;99.90;;;;;;5070626;28;20033;-47
2022/05/27 00:37:53;;;;;;;3.00;1.00;;;13.60;99.90;;;;;;5071453;28;20087;-46
2022/05/27 00:40:21;;;;;;;5.70;0.93;;;13.60;99.90;;;;;;5071346;28;20039;-46
2022/05/27 00:42:47;;;;;;;4.18;1.10;;;13.60;99.90;;;;;;5070895;28;20133;-47
2022/05/27 00:45:17;;;;;;;3.08;0.88;;;13.60;99.90;;;;;;5070889;28;20190;-47
2022/05/27 00:47:45;;;;;;;1.98;0.70;;;13.60;99.90;;;;;;5071383;28;20059;-48
2022/05/27 00:50:13;;;;;;;5.20;0.98;;;13.60;99.90;;;;;;5071446;28;20346;-47
2022/05/27 00:52:42;;;;;;;6.68;1.13;;;13.60;99.90;;;;;;5070289;28;20082;-47
2022/05/27 00:55:13;;;;;;;3.65;1.40;;;13.60;99.90;;;;;;5070638;28;20033;-46
2022/05/27 00:57:47;;;;;;;4.15;0.93;;;13.60;99.90;;;;;;5071022;28;20557;-48
2022/05/27 01:00:17;;;;;;;3.25;0.90;;;13.50;99.90;;;;;;5070991;28;20106;-47
2022/05/27 01:02:43;;;;;;;3.22;1.27;;;13.50;99.90;;;;;;5070721;28;20123;-47
2022/05/27 01:05:11;;;;;;;4.50;0.98;;;13.60;99.90;;;;;;5069084;28;20042;-47
2022/05/27 01:07:37;;;;;;;5.55;1.00;;;13.60;99.90;;;;;;5071364;28;20275;-47
2022/05/27 01:10:06;;;;;;;5.53;1.27;;;13.50;99.90;;;;;;5071083;28;20116;-46
2022/05/27 01:12:40;;;;;;;5.03;1.42;;;13.50;99.90;;;;;;5070500;28;20131;-46
2022/05/27 01:15:12;;;;;;;5.50;1.83;;;13.50;99.90;;;;;;5069985;28;20044;-46
2022/05/27 01:17:59;;;;;;;3.38;1.02;;;13.50;99.90;;;;;;5071379;28;20036;-47
2022/05/27 01:20:42;;;;;;;4.65;1.80;;;13.50;99.90;;;;;;5071197;28;20041;-47
2022/05/27 01:23:48;;;;;;;2.85;1.38;;;13.50;99.90;;;;;;5070527;28;20153;-46
2022/05/27 01:26:35;;;;;;;2.83;1.42;;;13.60;99.90;;;;;;5070152;28;20040;-47
2022/05/27 01:29:04;;;;;;;7.00;2.13;;;13.60;99.90;;;;;;5069562;28;20040;-46
2022/05/27 01:31:47;;;;;;;4.72;2.00;;;13.60;99.90;;;;;;5069987;28;20140;-46
2022/05/27 01:34:16;;;;;;;6.18;2.42;;;13.60;99.90;;;;;;5069891;28;20037;-47
2022/05/27 01:37:00;;;;;;;5.63;2.20;;;13.60;99.90;;;;;;5070001;28;20041;-47
2022/05/27 01:39:49;;;;;;;6.32;2.13;;;13.60;99.90;;;;;;5070600;28;20460;-46
2022/05/27 01:42:21;;;;;;;6.07;2.30;;;13.60;99.90;;;;;;5068226;28;20063;-48
2022/05/27 01:44:57;;;;;;;3.28;2.00;;;13.60;99.90;;;;;;5069933;28;20577;-49
2022/05/27 01:47:49;;;;;;;4.60;1.97;;;13.60;99.90;;;;;;5050471;28;20036;-47
2022/05/27 01:50:24;;;;;;;4.63;2.80;;;13.60;99.90;;;;;;5068830;28;20684;-47
2022/05/27 01:53:01;;;;;;;7.38;2.38;;;13.60;99.90;;;;;;5067972;28;20084;-46
2022/05/27 01:55:53;;;;;;;6.53;2.33;;;13.60;99.90;;;;;;5069811;28;20040;-47
2022/05/27 01:58:37;;;;;;;6.63;2.63;;;13.60;99.90;;;;;;5050662;28;20041;-48
2022/05/27 02:01:07;;;;;;;5.82;2.50;;;13.60;99.90;;;;;;5059063;28;20050;-47
2022/05/27 02:03:37;;;;;;;13.02;3.22;;;13.70;99.90;;;;;;5069439;28;20047;-47
2022/05/27 02:06:23;;;;;;;8.68;3.08;;;13.60;99.90;;;;;;5069386;28;20045;-47
2022/05/27 02:09:03;;;;;;;9.15;3.55;;;13.60;99.90;;;;;;5070203;28;20051;-47
2022/05/27 02:11:29;;;;;;;11.85;4.35;;;13.60;99.90;;;;;;5069582;28;20035;-47
2022/05/27 02:14:09;;;;;;;7.50;3.53;;;13.60;99.90;;;;;;5069802;28;20059;-47
2022/05/27 02:16:45;;;;;;;8.20;2.95;;;13.60;99.90;;;;;;5068379;28;20043;-48
2022/05/27 02:19:16;;;;;;;5.80;3.03;;;13.60;99.90;;;;;;5070041;28;20085;-47
2022/05/27 02:22:05;;;;;;;8.15;3.08;;;13.50;99.90;;;;;;5069286;28;20067;-47
2022/05/27 02:24:38;;;;;;;9.55;3.00;;;13.50;99.90;;;;;;5057221;28;20159;-49
2022/05/27 02:27:08;;;;;;;10.25;3.03;;;13.50;99.90;;;;;;5068574;28;20390;-47
2022/05/27 02:29:36;;;;;;;11.88;3.50;;;13.50;99.90;;;;;;5070069;28;20507;-48
2022/05/27 02:32:23;;;;;;;10.65;3.90;;;13.50;99.90;;;;;;5068814;28;20056;-47
2022/05/27 02:35:09;;;;;;;8.98;3.00;;;13.40;99.90;;;;;;5069202;28;20044;-46
2022/05/27 02:37:45;;;;;;;8.20;3.05;;;13.50;99.90;;;;;;5069717;28;20041;-47
2022/05/27 02:40:18;;;;;;;9.82;3.90;;;13.40;99.90;;;;;;5069724;28;20093;-47
2022/05/27 02:43:05;;;;;;;13.25;5.22;;;13.40;99.90;;;;;;5068674;28;20088;-47
2022/05/27 02:45:47;;;;;;;11.27;3.90;;;13.30;99.90;;;;;;5069134;28;20040;-47
2022/05/27 02:48:26;;;;;;;4.85;2.25;;;13.40;99.90;;;;;;5069777;28;20047;-47
2022/05/27 02:51:15;;;;;;;9.30;3.45;;;13.40;99.90;;;;;;5049779;28;20041;-47
2022/05/27 02:54:08;;;;;;;15.00;4.22;;;13.30;99.90;;;;;;5065730;28;20041;-48
2022/05/27 02:56:43;;;;;;;11.57;3.38;;;13.30;99.90;;;;;;5068037;28;20060;-47
2022/05/27 02:59:11;;;;;;;10.32;3.55;;;13.30;99.90;;;;;;5068641;28;20090;-48
2022/05/27 03:01:37;;;;;;;15.13;4.57;;;13.30;99.90;;;;;;5068796;28;20041;-47
2022/05/27 03:04:05;;;;;;;8.35;3.50;;;13.30;99.90;;;;;;5068619;28;20036;-47
2022/05/27 03:06:57;;;;;;;15.05;3.67;;;13.30;99.90;;;;;;5068734;28;20041;-47
2022/05/27 03:09:35;;;;;;;12.40;2.55;;;13.30;99.90;;;;;;5069602;28;20041;-47
2022/05/27 03:12:05;;;;;;;12.43;3.38;;;13.20;99.90;;;;;;5068680;28;20409;-47
2022/05/27 03:15:17;;;;;;;13.82;3.65;;;13.20;99.90;;;;;;5067616;28;20399;-47
2022/05/27 03:17:49;;;;;;;8.10;2.60;;;13.20;99.90;;;;;;5069259;28;20516;-47
2022/05/27 03:20:23;;;;;;;8.70;3.20;;;13.20;99.90;;;;;;5069186;28;20045;-47
2022/05/27 03:22:58;;;;;;;6.78;2.97;;;13.10;99.90;;;;;;5069004;28;20109;-47
2022/05/27 03:25:51;;;;;;;12.82;2.90;;;13.10;99.90;;;;;;5067307;28;20040;-47
2022/05/27 03:28:19;;;;;;;10.80;2.85;;;13.10;99.90;;;;;;5071598;28;20048;-47
2022/05/27 03:30:56;;;;;;;18.35;3.17;;;13.10;99.90;;;;;;5072853;28;20401;-46
2022/05/27 03:33:54;;;;;;;11.45;3.13;;;13.10;99.90;;;;;;5072736;28;20056;-46
2022/05/27 03:36:50;;;;;;;12.48;3.22;;;13.10;99.90;;;;;;5072161;28;20032;-48
2022/05/27 03:39:26;;;;;;;15.55;4.45;;;13.10;99.90;;;;;;5065464;28;20048;-47
2022/05/27 03:42:05;;;;;;;7.65;3.15;;;13.10;99.90;;;;;;5072335;28;20154;-46
2022/05/27 03:44:31;;;;;;;12.82;3.50;;;13.00;99.90;;;;;;5070972;28;20111;-46
2022/05/27 03:46:59;;;;;;;15.45;3.08;;;13.00;99.90;;;;;;5071965;28;20044;-48
2022/05/27 03:49:25;;;;;;;9.98;2.90;;;13.10;99.90;;;;;;5072579;28;20036;-48
2022/05/27 03:52:01;;;;;;;9.23;2.78;;;13.10;99.90;;;;;;5071562;28;20048;-48
2022/05/27 03:54:26;;;;;;;14.63;2.88;;;13.10;99.90;;;;;;5072390;28;20041;-47
2022/05/27 03:56:52;;;;;;;10.02;2.88;;;13.10;99.90;;;;;;5071867;28;20193;-47
2022/05/27 03:59:18;;;;;;;13.05;2.55;;;13.10;99.90;;;;;;5072425;28;20036;-47
2022/05/27 04:01:47;;;;;;;18.85;4.15;;;13.10;99.90;;;;;;5071859;28;20052;-47
2022/05/27 04:04:16;;;;;;;15.02;2.85;;;13.10;99.90;;;;;;5071734;28;20328;-46
2022/05/27 04:06:42;;;;;;;11.63;3.08;;;13.10;99.90;;;;;;5071392;28;20054;-47
2022/05/27 04:09:08;;;;;;;15.05;2.67;;;13.10;99.90;;;;;;5072187;28;20040;-47
2022/05/27 04:11:34;;;;;;;12.18;3.25;;;13.10;99.90;;;;;;5071697;28;20060;-47
2022/05/27 04:14:01;;;;;;;12.35;2.72;;;13.10;99.90;;;;;;5071756;28;20044;-47
2022/05/27 04:16:26;;;;;;;15.50;2.58;;;13.10;99.90;;;;;;5069217;28;20068;-47
2022/05/27 04:18:52;;;;;;;15.70;3.15;;;13.10;99.90;;;;;;5071698;28;20125;-47
2022/05/27 04:21:18;;;;;;;11.13;2.43;;;13.10;99.90;;;;;;5071406;28;20033;-47
2022/05/27 04:23:44;;;;;;;18.17;3.22;;;13.10;99.90;;;;;;5067682;28;20727;-47
2022/05/27 04:26:10;;;;;;;;;;;13.10;99.90;;;;;;5071372;28;20405;-47
2022/05/27 04:28:35;;;;;;;14.52;2.40;;;13.10;99.90;;;;;;5087539;28;19917;-48
2022/05/27 04:31:02;;;;;;;21.10;4.60;;;13.10;99.90;;;;;;5070279;28;20095;-47
2022/05/27 04:33:29;;;;;;;16.35;2.88;;;13.10;99.90;;;;;;5070691;28;20032;-47
2022/05/27 04:35:55;;;;;;;;;;;13.10;99.90;;;;;;5071334;28;20389;-48
2022/05/27 04:38:23;;;;;;;20.85;3.25;;;13.10;99.90;;;;;;5071661;28;19974;-47
2022/05/27 04:40:49;;;;;;;14.00;2.97;;;13.20;99.90;;;;;;5070351;28;20040;-47
2022/05/27 04:43:16;;;;;;;13.63;3.17;;;13.20;99.90;;;;;;5071039;28;20494;-47
2022/05/27 04:45:42;;;;;;;12.15;2.75;;;13.20;99.90;;;;;;5070455;28;20044;-46
2022/05/27 04:48:09;;;;;;;20.38;3.33;;;13.20;99.90;;;;;;5070977;28;20044;-46
2022/05/27 04:50:35;;;;;;;10.13;2.60;;;13.20;99.90;;;;;;5071770;28;20047;-47
2022/05/27 04:53:01;;;;;;;11.75;2.58;;;13.20;99.90;;;;;;5070923;28;20040;-47
2022/05/27 04:55:30;;;;;;;10.63;2.00;;;13.20;99.90;;;;;;5070621;28;20043;-46
2022/05/27 04:57:57;;;;;;;18.75;2.20;;;13.20;99.90;;;;;;5070902;28;20119;-47
2022/05/27 05:00:32;;;;;;;12.27;2.58;;;13.30;99.90;;;;;;5071495;28;20136;-47
2022/05/27 05:02:58;;;;;;;12.65;3.22;;;13.20;99.90;;;;;;5070410;28;20040;-47
2022/05/27 05:05:26;;;;;;;9.07;1.77;;;13.20;99.90;;;;;;5070851;28;20039;-48
2022/05/27 05:07:57;;;;;;;11.27;2.25;;;13.30;99.90;;;;;;5070691;28;20097;-47
2022/05/27 05:10:23;;;;;;;13.40;3.03;;;13.30;99.90;;;;;;5071187;28;20039;-47
2022/05/27 05:12:50;;;;;;;8.57;2.42;;;13.30;99.90;;;;;;5070534;28;20036;-48
2022/05/27 05:15:17;;;;;;;17.40;3.03;;;13.30;99.90;;;;;;5070341;28;20033;-47
2022/05/27 05:17:43;;;;;;;8.50;2.40;;;13.30;99.90;;;;;;5071066;28;20055;-47
2022/05/27 05:20:12;;;;;;;10.63;2.03;;;13.30;99.90;;;;;;5071534;28;20449;-47
2022/05/27 05:22:37;;;;;;;18.48;3.28;;;13.30;99.90;;;;;;5070201;28;20044;-47
2022/05/27 05:25:04;;;;;;;22.23;4.83;;;13.40;99.90;;;;;;5069237;28;20032;-47
2022/05/27 05:27:29;;;;;;;10.98;2.30;;;13.50;99.90;;;;;;5069744;28;20295;-48
2022/05/27 05:29:56;;;;;;;16.20;3.35;;;13.60;99.90;;;;;;5070820;28;20036;-47
2022/05/27 05:32:22;;;;;;;15.38;1.67;;;13.60;99.90;;;;;;5070240;28;20599;-47
2022/05/27 05:34:48;;;;;;;13.73;2.13;;;13.70;99.90;;;;;;5070058;28;20224;-47
2022/05/27 05:37:15;;;;;;;11.40;2.45;;;13.80;99.90;;;;;;5070627;28;20039;-47
2022/05/27 05:39:40;;;;;;;10.18;2.70;;;13.80;99.90;;;;;;5070274;28;20467;-47
2022/05/27 05:42:07;;;;;;;12.43;2.28;;;13.80;99.90;;;;;;5069269;28;20044;-48
2022/05/27 05:44:33;;;;;;;13.20;2.13;;;13.80;99.90;;;;;;5069872;28;20039;-47
2022/05/27 05:47:00;;;;;;;9.88;1.92;;;13.80;99.90;;;;;;5070014;28;20053;-47
2022/05/27 05:49:26;;;;;;;9.95;1.80;;;13.90;99.90;;;;;;5070542;28;20040;-47
2022/05/27 05:51:54;;;;;;;11.85;1.75;;;13.90;99.90;;;;;;5069387;28;20036;-47
2022/05/27 05:54:21;;;;;;;13.10;2.60;;;14.00;99.90;;;;;;5070021;28;20068;-47
2022/05/27 05:56:47;;;;;;;9.55;1.70;;;14.00;99.90;;;;;;5067885;28;20068;-47
2022/05/27 05:59:14;;;;;;;12.20;1.85;;;14.00;99.90;;;;;;5070372;28;20421;-47
2022/05/27 06:01:41;;;;;;;15.05;2.50;;;14.10;99.90;;;;;;5069903;28;20098;-46
2022/05/27 06:04:06;;;;;;;;;;;14.10;99.90;;;;;;5070379;28;20374;-48
2022/05/27 06:06:32;;;;;;;13.63;1.92;;;14.20;99.90;;;;;;5068943;28;19970;-48
2022/05/27 06:08:58;;;;;;;11.32;2.42;;;14.30;99.90;;;;;;5070013;28;20059;-47
2022/05/27 06:11:23;;;;;;;9.68;1.63;;;14.30;99.90;;;;;;5069474;28;20485;-47
2022/05/27 06:13:49;;;;;;;5.85;1.20;;;14.30;99.90;;;;;;5069652;28;20393;-47
2022/05/27 06:16:14;;;;;;;9.45;1.95;;;14.30;99.90;;;;;;5069564;28;20047;-47
2022/05/27 06:18:40;;;;;;;12.18;1.48;;;14.30;99.90;;;;;;5069876;28;20047;-48
2022/05/27 06:21:06;;;;;;;12.00;1.37;;;14.30;99.90;;;;;;5070075;28;20033;-47
2022/05/27 06:23:31;;;;;;;10.50;1.77;;;14.20;99.90;;;;;;5069265;28;20102;-47
2022/05/27 06:26:04;;;;;;;7.33;1.20;;;14.20;99.90;;;;;;5068792;28;20036;-47
2022/05/27 06:36:45;;;;;;;9.07;1.83;;;14.30;99.90;;;;;;5065757;28;20040;-47
2022/05/27 06:39:11;;;;;;;15.82;1.80;;;14.40;99.90;;;;;;5069424;28;20391;-48
2022/05/27 06:41:37;;;;;;;11.07;1.27;;;14.50;99.90;;;;;;5069391;28;20048;-47
2022/05/27 06:44:03;;;;;;;;;;;14.60;99.90;;;;;;5069293;28;20051;-48
2022/05/27 06:46:29;;;;;;;10.45;2.20;;;14.80;99.90;;;;;;5068695;28;20324;-47
2022/05/27 06:48:55;;;;;;;;;;;14.90;99.90;;;;;;5069409;28;20037;-49
2022/05/27 06:51:21;;;;;;;13.18;1.75;;;14.90;99.90;;;;;;5068981;28;19917;-47
2022/05/27 06:53:47;;;;;;;12.73;1.77;;;14.90;99.90;;;;;;5069182;28;20115;-47
2022/05/27 06:56:13;;;;;;;;;;;14.90;99.90;;;;;;5068835;28;20112;-48
2022/05/27 06:58:43;;;;;;;10.38;1.42;;;14.90;99.90;;;;;;5068283;28;19923;-47
2022/05/27 07:01:10;;;;;;;14.35;2.55;;;15.00;99.90;;;;;;5052687;28;20524;-47
2022/05/27 07:03:37;;;;;;;9.32;1.55;;;15.00;99.90;;;;;;5062196;28;20064;-49
2022/05/27 07:06:05;;;;;;;10.55;1.23;;;15.20;99.90;;;;;;5071988;28;20036;-47
2022/05/27 07:08:30;;;;;;;13.90;2.40;;;15.20;99.90;;;;;;5073474;28;20394;-48
2022/05/27 07:10:56;;;;;;;12.57;1.20;;;15.20;99.90;;;;;;5073586;28;20047;-48
2022/05/27 07:13:22;;;;;;;12.40;1.52;;;15.20;99.90;;;;;;5073029;28;20563;-47
2022/05/27 07:15:47;;;;;;;10.35;1.48;;;15.20;99.90;;;;;;5071021;28;20040;-47
2022/05/27 07:18:13;;;;;;;12.82;2.03;;;15.30;99.90;;;;;;5073118;28;20032;-47
2022/05/27 07:20:40;;;;;;;12.27;1.60;;;15.30;99.90;;;;;;5073158;28;20474;-47
2022/05/27 07:23:06;;;;;;;16.73;2.22;;;15.40;99.90;;;;;;5071351;28;20048;-47
2022/05/27 07:25:35;;;;;;;11.95;2.33;;;15.50;99.90;;;;;;5072513;28;20039;-48
2022/05/27 07:28:08;;;;;;;11.82;2.20;;;15.60;99.90;;;;;;5072569;28;20044;-48
2022/05/27 07:30:35;;;;;;;13.68;1.77;;;15.70;99.90;;;;;;5070641;28;20063;-48
2022/05/27 07:33:01;;;;;;;13.75;2.63;;;15.80;99.90;;;;;;5063308;28;20035;-47
2022/05/27 07:35:27;;;;;;;9.75;1.95;;;15.90;99.90;;;;;;5072281;28;20040;-48
2022/05/27 07:37:52;;;;;;;10.00;1.42;;;15.90;99.90;;;;;;5072428;28;20459;-47
2022/05/27 07:40:18;;;;;;;16.33;1.92;;;16.00;99.90;;;;;;5072263;28;20036;-47
2022/05/27 07:42:44;;;;;;;8.55;1.73;;;15.90;99.90;;;;;;5071158;28;20125;-48
2022/05/27 07:45:17;;;;;;;10.90;2.60;;;16.00;99.90;;;;;;5071905;28;20041;-47
2022/05/27 07:47:43;;;;;;;17.80;2.22;;;16.00;99.90;;;;;;5070708;28;20059;-47
2022/05/27 07:50:11;;;;;;;;;;;16.10;99.90;;;;;;5068601;28;20040;-48
2022/05/27 07:52:36;;;;;;;;;;;16.10;99.90;;;;;;5072031;28;19924;-47
2022/05/27 07:55:03;;;;;;;10.55;1.58;;;16.10;99.90;;;;;;5070968;28;20316;-48
2022/05/27 07:57:29;;;;;;;11.13;2.35;;;16.00;99.90;;;;;;5071798;28;20102;-49
2022/05/27 07:59:54;;;;;;;22.38;2.58;;;15.90;99.90;;;;;;5072632;28;20516;-47
2022/05/27 08:02:21;;;;;;;9.43;1.63;;;15.80;99.90;;;;;;5071827;28;20093;-47
2022/05/27 08:04:47;;;;;;;13.13;2.00;;;15.90;99.90;;;;;;5071794;28;20279;-47
2022/05/27 08:07:13;;;;;;;;;;;15.90;99.90;;;;;;5072360;28;20067;-48
2022/05/27 08:09:38;;;;;;;20.75;3.45;;;16.00;99.90;;;;;;5071896;28;20373;-47
2022/05/27 08:12:05;;;;;;;8.32;1.50;;;16.10;99.90;;;;;;5056078;28;20072;-48
2022/05/27 08:14:31;;;;;;;13.15;2.67;;;16.20;99.90;;;;;;5060648;28;20041;-47
2022/05/27 08:16:56;;;;;;;;;;;16.30;99.90;;;;;;5072169;28;20055;-48
2022/05/27 08:19:22;;;;;;;19.10;2.58;;;16.30;99.90;;;;;;5071467;28;19920;-48
2022/05/27 08:21:48;;;;;;;7.97;1.17;;;16.40;99.90;;;;;;5071115;28;20040;-47
2022/05/27 08:24:13;;;;;;;8.07;1.60;;;16.30;99.90;;;;;;5071546;28;20416;-47
2022/05/27 08:26:39;;;;;;;12.82;1.83;;;16.40;99.90;;;;;;5070446;28;20474;-48
2022/05/27 08:29:06;;;;;;;16.52;1.38;;;16.30;99.90;;;;;;5072101;28;20578;-47
2022/05/27 08:31:32;;;;;;;11.73;1.90;;;16.20;99.90;;;;;;5069306;28;20041;-50
2022/05/27 08:39:26;;;;;;;8.13;1.33;;;15.80;99.90;;;;;;5057162;28;20163;-47
2022/05/27 08:42:17;;;;;;;14.80;1.55;;;15.70;99.40;;;;;;5070422;28;20324;-48
2022/05/27 08:44:59;;;;;;;15.57;2.13;;;15.80;98.90;;;;;;5068403;28;20044;-47
2022/05/27 08:47:41;;;;;;;12.77;1.25;;;15.90;97.00;;;;;;5069824;28;20044;-47
2022/05/27 08:50:19;;;;;;;11.85;1.35;;;15.80;97.20;;;;;;5071116;28;20103;-48
2022/05/27 08:52:47;;;;;;;14.13;2.10;;;15.90;98.20;;;;;;5069981;28;20076;-47
2022/05/27 09:01:29;;;;;;;11.82;1.25;;;16.30;95.30;;;;;;5071010;28;20086;-47
2022/05/27 09:04:18;;;;;;;12.95;2.15;;;16.30;97.20;;;;;;5071097;28;20068;-47
2022/05/27 09:06:51;;;;;;;10.15;1.35;;;16.30;97.00;;;;;;5063955;28;20098;-48
2022/05/27 09:09:23;;;;;;;9.57;1.35;;;16.30;94.90;;;;;;5071253;28;20516;-47
2022/05/27 09:12:10;;;;;;;5.43;1.17;;;16.30;96.20;;;;;;5070608;28;20032;-47
2022/05/27 09:14:42;;;;;;;9.35;1.30;;;16.30;94.40;;;;;;5070018;28;20426;-48
2022/05/27 09:17:15;;;;;;;7.53;1.63;;;16.20;94.90;;;;;;5069673;28;20523;-47
2022/05/27 09:19:53;;;;;;;8.65;1.10;;;16.20;93.70;;;;;;5069807;28;20048;-48
2022/05/27 09:22:43;;;;;;;7.05;1.60;;;16.20;95.40;;;;;;5070223;28;20499;-48
2022/05/27 09:25:30;;;;;;;9.57;1.15;;;16.30;96.00;;;;;;5069427;28;20040;-49
2022/05/27 09:28:01;;;;;;;7.28;1.27;;;16.30;96.00;;;;;;5069307;28;20083;-47
2022/05/27 09:30:27;;;;;;;9.77;1.45;;;16.30;96.30;;;;;;5070825;28;20528;-47
2022/05/27 09:33:03;;;;;;;6.53;1.00;;;16.30;96.50;;;;;;5070053;28;20123;-47
2022/05/27 09:35:42;;;;;;;10.45;0.93;;;16.40;95.50;;;;;;5069614;28;20067;-47
2022/05/27 09:38:21;;;;;;;13.10;2.30;;;16.40;96.80;;;;;;5070471;28;20040;-48
2022/05/27 09:40:52;;;;;;;13.82;1.88;;;16.50;97.60;;;;;;5070718;28;20040;-47
2022/05/27 09:43:29;;;;;;;10.32;1.60;;;16.60;96.70;;;;;;5069758;28;20094;-48
2022/05/27 09:46:04;;;;;;;10.60;1.10;;;16.70;96.60;;;;;;5069237;28;20383;-48
2022/05/27 09:48:30;;;;;;;8.88;1.45;;;16.80;96.40;;;;;;5070445;28;20486;-47
2022/05/27 09:51:01;;;;;;;15.52;1.60;;;16.90;95.30;;;;;;5070616;28;20115;-47
2022/05/27 09:53:37;;;;;;;9.75;2.00;;;17.00;95.70;;;;;;5070033;28;20045;-47
2022/05/27 09:56:08;;;;;;;10.83;1.67;;;16.90;95.30;;;;;;5069675;28;20083;-48
2022/05/27 09:58:40;;;;;;;9.02;1.83;;;16.80;94.70;;;;;;5070086;28;20298;-48
2022/05/27 10:01:23;;;;;;;12.02;1.40;;;16.80;96.20;;;;;;5070384;28;20043;-47
2022/05/27 10:04:04;;;;;;;12.45;1.10;;;16.90;96.30;;;;;;5068719;28;20068;-47
2022/05/27 10:06:32;;;;;;;14.35;1.58;;;17.00;95.50;;;;;;5068366;28;20036;-48
2022/05/27 10:09:00;;;;;;;6.88;0.93;;;17.00;95.70;;;;;;5069842;28;20055;-47
2022/05/27 10:11:27;;;;;;;7.88;1.17;;;17.00;95.40;;;;;;5070081;28;20054;-47
2022/05/27 10:14:18;;;;;;;7.03;0.95;;;17.00;94.80;;;;;;5069742;28;20041;-47
2022/05/27 10:17:08;;;;;;;9.80;0.95;;;16.80;93.10;;;;;;5069426;28;20052;-48
2022/05/27 10:19:35;;;;;;;11.43;1.17;;;16.50;94.00;;;;;;5068967;28;20051;-47
2022/05/27 10:22:22;;;;;;;10.77;0.90;;;16.50;95.60;;;;;;5069631;28;20405;-47
2022/05/27 10:25:04;;;;;;;5.00;0.60;;;16.50;92.70;;;;;;5069376;28;20051;-49
2022/05/27 10:27:39;;;;;;;3.83;0.50;;;16.50;94.30;;;;;;5069658;28;20432;-47
2022/05/27 10:30:22;;;;;;;8.77;0.60;;;16.50;93.50;;;;;;5070252;28;20068;-47
2022/05/27 10:32:48;;;;;;;5.88;0.57;;;16.50;94.70;;;;;;5069478;28;20036;-47
2022/05/27 10:35:20;;;;;;;10.77;1.75;;;16.50;93.50;;;;;;5069489;28;20032;-46
2022/05/27 10:37:59;;;;;;;5.82;0.95;;;16.30;91.60;;;;;;5071149;28;20094;-46
2022/05/27 10:40:34;;;;;;;10.25;1.33;;;16.20;93.20;;;;;;5074600;28;20048;-47
2022/05/27 10:43:37;;;;;;;10.07;1.45;;;16.30;95.20;;;;;;5073369;28;20044;-48
2022/05/27 10:46:09;;;;;;;6.43;0.80;;;16.40;94.30;;;;;;5073745;28;20055;-47
2022/05/27 10:49:01;;;;;;;9.05;1.38;;;16.40;93.30;;;;;;5073749;28;20076;-47
2022/05/27 10:51:48;;;;;;;9.73;1.20;;;16.40;94.40;;;;;;5073736;28;20458;-47
2022/05/27 10:55:07;;;;;;;8.70;1.48;;;16.30;94.80;;;;;;5072990;28;20059;-47
2022/05/27 11:04:04;;;;;;;9.02;1.40;;;16.30;95.40;;;;;;5071711;28;20044;-47
2022/05/27 11:06:59;;;;;;;8.15;1.48;;;16.30;94.80;;;;;;5035030;28;20056;-47
2022/05/27 11:09:39;;;;;;;6.93;1.05;;;16.20;94.30;;;;;;5072954;28;20036;-47
2022/05/27 11:15:10;;;;;;;11.60;1.10;;;16.30;93.80;;;;;;5072057;28;20089;-47
2022/05/27 11:15:38;;;;;;;16.13;1.45;;;16.30;95.50;;;;;;5071929;28;20044;-47
2022/05/27 11:18:30;;;;;;;9.68;1.50;;;16.50;94.90;;;;;;5070453;28;20440;-47
2022/05/27 11:21:16;;;;;;;5.40;1.02;;;16.50;94.10;;;;;;5068421;28;20051;-47
2022/05/27 11:24:03;;;;;;;8.43;1.23;;;16.50;94.10;;;;;;5071163;28;20466;-47
2022/05/27 11:26:49;;;;;;;12.70;1.55;;;16.50;94.00;;;;;;5070144;28;20387;-47
2022/05/27 11:29:46;;;;;;;7.45;1.10;;;16.40;93.40;;;;;;5070892;28;20029;-47
2022/05/27 11:32:31;;;;;;;9.15;1.13;;;16.30;92.50;;;;;;5070218;28;20111;-48
2022/05/27 11:35:07;;;;;;;5.10;1.10;;;16.30;93.20;;;;;;5071313;28;20041;-47
2022/05/27 11:38:05;;;;;;;6.05;0.75;;;16.20;93.60;;;;;;5072200;28;20440;-47
2022/05/27 11:41:22;;;;;;;8.48;0.70;;;16.30;94.10;;;;;;5071740;28;20047;-46
2022/05/27 11:44:11;;;;;;;6.90;1.08;;;16.30;92.60;;;;;;4994760;28;20511;-47
2022/05/27 11:47:09;;;;;;;11.57;1.40;;;16.40;95.00;;;;;;5060949;28;20044;-46
2022/05/27 11:49:56;;;;;;;11.93;0.90;;;16.50;95.00;;;;;;5063374;28;20450;-49
2022/05/27 11:53:00;;;;;;;9.98;2.47;;;16.80;94.60;;;;;;5063810;28;20585;-46
2022/05/27 11:55:42;;;;;;;9.85;1.80;;;17.10;95.20;;;;;;5051829;28;20071;-47
2022/05/27 11:58:29;;;;;;;8.80;1.67;;;17.30;93.70;;;;;;5070673;28;20048;-47
2022/05/27 12:01:04;;;;;;;11.35;1.30;;;17.30;91.80;;;;;;5072134;28;20040;-46
2022/05/27 12:03:41;;;;;;;6.50;1.27;;;17.30;92.60;;;;;;5065812;28;20040;-46
2022/05/27 12:06:09;;;;;;;;;;;17.40;92.70;;;;;;5070437;28;20337;-47
2022/05/27 12:08:48;;;;;;;10.88;1.02;;;17.40;91.00;;;;;;5071956;28;19999;-47
2022/05/27 12:11:21;;;;;;;11.90;1.30;;;17.30;90.40;;;;;;5071439;28;20591;-46
2022/05/27 12:13:54;;;;;;;9.93;1.52;;;17.20;92.00;;;;;;5071733;28;20047;-47
2022/05/27 12:16:26;;;;;;;19.50;3.00;;;17.20;92.70;;;;;;5070762;28;20447;-47
2022/05/27 12:19:12;;;;;;;7.07;1.35;;;17.30;93.20;;;;;;5072003;28;20040;-47
2022/05/27 12:21:41;;;;;;;7.72;1.73;;;17.20;90.60;;;;;;5071035;28;20375;-46
2022/05/27 12:24:12;;;;;;;7.95;0.98;;;17.10;90.90;;;;;;5072061;28;20055;-47
2022/05/27 12:26:39;;;;;;;7.50;0.98;;;17.10;92.70;;;;;;5070874;28;20098;-47
2022/05/27 12:29:08;;;;;;;6.32;1.20;;;17.10;91.70;;;;;;5070705;28;20123;-47
2022/05/27 12:31:35;;;;;;;8.07;0.95;;;17.00;90.10;;;;;;5070917;28;20657;-47
2022/05/27 12:34:25;;;;;;;10.20;1.88;;;16.80;90.10;;;;;;5070934;28;20040;-47
2022/05/27 12:36:55;;;;;;;10.43;1.65;;;16.70;91.00;;;;;;5070484;28;20093;-48
2022/05/27 12:39:29;;;;;;;8.40;1.15;;;16.60;91.30;;;;;;5070875;28;20049;-46
2022/05/27 12:42:11;;;;;;;11.48;1.52;;;16.50;92.40;;;;;;5070758;28;20048;-47
2022/05/27 12:44:38;;;;;;;11.52;1.20;;;16.50;93.30;;;;;;5051994;28;20044;-47
2022/05/27 12:47:04;;;;;;;6.88;1.27;;;16.70;94.10;;;;;;5071268;28;20083;-47
2022/05/27 12:49:45;;;;;;;7.15;1.00;;;16.90;92.20;;;;;;5070557;28;20563;-47
2022/05/27 12:52:29;;;;;;;5.65;1.15;;;17.00;91.70;;;;;;5064136;28;20090;-48
2022/05/27 12:54:55;;;;;;;10.50;1.75;;;17.10;91.20;;;;;;5070068;28;20109;-46
2022/05/27 13:00:57;;;;;;;7.20;1.48;;;17.20;92.60;;;;;;5066989;28;20434;-46
2022/05/27 13:03:38;;;;;;;9.80;1.00;;;17.20;92.60;;;;;;5057575;28;20040;-48
2022/05/27 13:06:14;;;;;;;10.18;1.52;;;17.20;92.40;;;;;;5068352;28;20242;-47
2022/05/27 13:09:03;;;;;;;6.97;1.40;;;17.20;91.60;;;;;;5070508;28;20588;-46
2022/05/27 13:11:34;;;;;;;10.55;1.50;;;17.20;91.10;;;;;;5085734;28;20294;-47
2022/05/27 13:14:03;;;;;;;14.05;1.73;;;17.10;92.50;;;;;;5065103;28;20107;-47
2022/05/27 13:16:47;;;;;;;15.27;1.63;;;17.10;93.00;;;;;;5069272;28;20520;-46
2022/05/27 13:19:22;;;;;;;13.13;1.75;;;17.00;92.40;;;;;;5070785;28;20047;-47
2022/05/27 13:21:54;;;;;;;12.70;1.65;;;17.00;91.70;;;;;;5069603;28;20097;-48
2022/05/27 13:24:20;;;;;;;10.40;1.65;;;17.00;92.30;;;;;;5070613;28;20036;-47
2022/05/27 13:26:45;;;;;;;15.32;2.03;;;16.90;92.20;;;;;;5069105;28;20521;-46
2022/05/27 13:29:38;;;;;;;11.45;1.40;;;16.70;91.40;;;;;;5069010;28;20120;-46
2022/05/27 13:32:16;;;;;;;13.30;2.30;;;16.50;92.20;;;;;;5069212;28;20517;-48
2022/05/27 13:34:59;;;;;;;12.27;1.42;;;16.60;93.70;;;;;;5069730;28;20066;-47
2022/05/27 13:37:37;;;;;;;19.42;2.92;;;16.50;93.30;;;;;;5069312;28;20047;-47
2022/05/27 13:40:10;;;;;;;9.10;1.25;;;16.50;93.50;;;;;;5069668;28;20037;-46
2022/05/27 13:42:41;;;;;;;12.63;1.35;;;16.50;93.60;;;;;;5069365;28;20041;-48
2022/05/27 13:45:11;;;;;;;14.73;1.73;;;16.60;94.20;;;;;;5069660;28;20036;-47
2022/05/27 13:47:42;;;;;;;10.63;1.35;;;16.80;94.40;;;;;;5069149;28;20041;-47